createdAt,value
2023-09-03T00:03:35.882Z,14.40
2023-09-03T00:08:32.990Z,14.33
2023-09-03T00:13:29.483Z,14.34
2023-09-03T00:18:26.050Z,14.29
2023-09-03T00:23:22.909Z,14.28
2023-09-03T00:28:20.017Z,14.23
2023-09-03T00:33:16.904Z,14.18
2023-09-03T00:38:13.320Z,14.17
2023-09-03T00:43:09.748Z,14.10
2023-09-03T00:48:07.231Z,14.09
2023-09-03T00:53:04.514Z,14.08
2023-09-03T00:58:01.154Z,14.06
2023-09-03T01:02:57.632Z,14.00
2023-09-03T01:07:54.948Z,13.92
2023-09-03T01:13:02.905Z,13.83
2023-09-03T01:18:22.744Z,13.71
2023-09-03T01:23:47.451Z,13.63
2023-09-03T01:28:45.232Z,13.52
2023-09-03T01:33:44.166Z,13.42
2023-09-03T01:38:41.514Z,13.41
2023-09-03T01:43:38.072Z,13.34
2023-09-03T01:48:40.321Z,13.34
2023-09-03T01:53:51.987Z,13.34
2023-09-03T01:58:50.436Z,13.26
2023-09-03T02:03:48.940Z,13.26
2023-09-03T02:08:45.348Z,13.13
2023-09-03T02:13:41.747Z,13.00
2023-09-03T02:18:38.182Z,12.96
2023-09-03T02:23:34.683Z,12.90
2023-09-03T02:28:31.305Z,12.84
2023-09-03T02:33:27.749Z,12.78
2023-09-03T02:38:24.186Z,12.89
2023-09-03T02:43:20.596Z,12.74
2023-09-03T02:48:17.025Z,12.71
2023-09-03T02:53:13.400Z,12.55
2023-09-03T02:58:09.842Z,12.41
2023-09-03T03:03:06.361Z,12.52
2023-09-03T03:08:04.188Z,12.48
2023-09-03T03:13:00.871Z,12.53
2023-09-03T03:17:57.329Z,12.41
2023-09-03T03:22:54.155Z,12.40
2023-09-03T03:27:50.588Z,12.24
2023-09-03T03:32:47.027Z,12.09
2023-09-03T03:37:43.504Z,12.02
2023-09-03T03:42:40.122Z,12.02
2023-09-03T03:47:38.131Z,12.05
2023-09-03T03:52:34.547Z,11.95
2023-09-03T03:57:30.972Z,11.90
2023-09-03T04:02:27.401Z,12.02
2023-09-03T04:07:23.880Z,12.02
2023-09-03T04:12:20.773Z,11.93
2023-09-03T04:17:17.261Z,11.74
2023-09-03T04:22:14.201Z,11.67
2023-09-03T04:27:10.679Z,11.68
2023-09-03T04:32:07.435Z,11.52
2023-09-03T04:37:04.011Z,11.45
2023-09-03T04:42:00.469Z,11.39
2023-09-03T04:46:57.182Z,11.57
2023-09-03T04:51:53.630Z,11.83
2023-09-03T04:56:50.221Z,11.99
2023-09-03T05:01:47.517Z,11.92
2023-09-03T05:06:44.001Z,11.79
2023-09-03T05:11:43.338Z,11.58
2023-09-03T05:16:39.829Z,11.52
2023-09-03T05:21:36.282Z,11.62
2023-09-03T05:26:33.034Z,11.77
2023-09-03T05:31:31.713Z,11.73
2023-09-03T05:36:28.430Z,12.64
2023-09-03T05:41:24.841Z,12.80
2023-09-03T05:46:21.355Z,13.53
2023-09-03T05:51:18.097Z,13.69
2023-09-03T05:56:14.754Z,13.43
2023-09-03T06:01:12.220Z,13.37
2023-09-03T06:06:11.060Z,13.43
2023-09-03T06:11:09.120Z,13.46
2023-09-03T06:16:05.537Z,13.11
2023-09-03T06:21:02.059Z,13.23
2023-09-03T06:25:58.616Z,13.41
2023-09-03T06:30:58.355Z,13.46
2023-09-03T06:35:55.314Z,13.48
2023-09-03T06:40:51.727Z,13.74
2023-09-03T06:45:48.187Z,14.01
2023-09-03T06:50:44.691Z,14.14
2023-09-03T06:55:44.018Z,14.43
2023-09-03T07:00:40.489Z,14.78
2023-09-03T07:05:37.030Z,15.11
2023-09-03T07:10:34.581Z,15.39
2023-09-03T07:15:31.001Z,15.70
2023-09-03T07:20:27.410Z,15.81
2023-09-03T07:25:23.957Z,16.01
2023-09-03T07:30:20.456Z,16.28
2023-09-03T07:35:16.944Z,16.55
2023-09-03T07:40:13.858Z,16.76
2023-09-03T07:45:10.734Z,16.98
2023-09-03T07:50:07.612Z,17.52
2023-09-03T07:55:04.265Z,17.78
2023-09-03T08:00:00.774Z,17.89
2023-09-03T08:04:57.243Z,18.02
2023-09-03T08:09:53.840Z,17.77
2023-09-03T08:14:50.903Z,17.78
2023-09-03T08:19:48.237Z,18.14
2023-09-03T08:24:44.631Z,18.33
2023-09-03T08:29:41.261Z,18.26
2023-09-03T08:34:38.102Z,18.06
2023-09-03T08:39:34.495Z,19.21
2023-09-03T08:44:43.295Z,19.29
2023-09-03T08:49:41.086Z,19.51
2023-09-03T08:54:38.886Z,19.60
2023-09-03T08:59:35.536Z,19.86
2023-09-03T09:04:32.396Z,19.54
2023-09-03T09:09:30.861Z,19.21
2023-09-03T09:14:38.458Z,19.17
2023-09-03T09:19:34.807Z,19.14
2023-09-03T09:24:31.820Z,19.95
2023-09-03T09:29:28.271Z,20.48
2023-09-03T09:34:24.691Z,21.13
2023-09-03T09:39:22.713Z,21.82
2023-09-03T09:44:21.270Z,21.52
2023-09-03T09:49:17.686Z,21.66
2023-09-03T09:54:14.182Z,22.36
2023-09-03T09:59:11.310Z,22.36
2023-09-03T10:04:07.736Z,22.66
2023-09-03T10:09:04.678Z,20.92
2023-09-03T10:14:01.144Z,20.34
2023-09-03T10:19:01.387Z,20.84
2023-09-03T10:24:00.096Z,22.02
2023-09-03T10:29:04.166Z,22.74
2023-09-03T10:34:00.618Z,23.16
2023-09-03T10:38:59.208Z,23.29
2023-09-03T10:43:56.418Z,21.97
2023-09-03T10:48:57.937Z,20.47
2023-09-03T10:53:54.389Z,20.44
2023-09-03T10:58:57.685Z,21.13
2023-09-03T11:03:55.454Z,21.24
2023-09-03T11:09:01.040Z,21.26
2023-09-03T11:13:58.145Z,20.76
2023-09-03T11:18:54.767Z,20.97
2023-09-03T11:24:05.598Z,21.25
2023-09-03T11:29:03.698Z,20.95
2023-09-03T11:34:00.443Z,20.67
2023-09-03T11:38:57.883Z,20.43
2023-09-03T11:43:54.332Z,21.04
2023-09-03T11:48:52.656Z,20.90
2023-09-03T11:53:50.528Z,20.95
2023-09-03T11:58:51.847Z,20.75
2023-09-03T12:03:48.885Z,20.36
2023-09-03T12:08:46.110Z,21.60
2023-09-03T12:13:42.679Z,21.62
2023-09-03T12:18:40.226Z,21.13
2023-09-03T12:23:38.299Z,21.07
2023-09-03T12:28:37.337Z,21.52
2023-09-03T12:33:33.904Z,21.59
2023-09-03T12:38:30.428Z,21.54
2023-09-03T12:43:37.517Z,22.05
2023-09-03T12:48:33.900Z,21.56
2023-09-03T12:53:33.341Z,21.29
2023-09-03T12:58:29.741Z,21.13
2023-09-03T13:03:30.201Z,21.45
2023-09-03T13:08:26.727Z,21.14
2023-09-03T13:13:24.293Z,21.54
2023-09-03T13:18:21.472Z,21.96
2023-09-03T13:23:17.968Z,22.04
2023-09-03T13:28:14.462Z,22.14
2023-09-03T13:33:11.557Z,21.92
2023-09-03T13:38:08.476Z,22.01
2023-09-03T13:43:05.088Z,21.80
2023-09-03T13:48:01.809Z,22.30
2023-09-03T13:52:59.783Z,22.47
2023-09-03T13:57:56.307Z,22.33
2023-09-03T14:02:52.754Z,23.21
2023-09-03T14:07:49.358Z,23.17
2023-09-03T14:12:45.800Z,23.58
2023-09-03T14:17:42.315Z,22.53
2023-09-03T14:22:39.948Z,22.72
2023-09-03T14:27:36.441Z,22.24
2023-09-03T14:32:32.962Z,22.60
2023-09-03T14:37:29.439Z,22.89
2023-09-03T14:42:25.858Z,22.72
2023-09-03T14:47:22.640Z,22.59
2023-09-03T14:52:20.319Z,22.50
2023-09-03T14:57:16.716Z,22.24
2023-09-03T15:02:13.157Z,22.10
2023-09-03T15:07:10.459Z,21.72
2023-09-03T15:12:06.935Z,22.04
2023-09-03T15:17:04.327Z,22.36
2023-09-03T15:22:00.784Z,22.59
2023-09-03T15:26:57.178Z,22.21
2023-09-03T15:31:53.700Z,21.99
2023-09-03T15:36:52.158Z,22.22
2023-09-03T15:41:48.565Z,22.46
2023-09-03T15:46:45.028Z,21.87
2023-09-03T15:51:45.917Z,22.09
2023-09-03T15:56:42.481Z,22.34
2023-09-03T16:01:38.960Z,22.02
2023-09-03T16:06:35.506Z,21.57
2023-09-03T16:11:32.022Z,21.39
2023-09-03T16:16:31.262Z,21.61
2023-09-03T16:21:27.921Z,21.21
2023-09-03T16:26:24.329Z,21.01
2023-09-03T16:31:20.759Z,21.40
2023-09-03T16:36:17.257Z,21.92
2023-09-03T16:41:13.790Z,22.21
2023-09-03T16:46:10.330Z,22.26
2023-09-03T16:51:06.723Z,22.74
2023-09-03T16:56:03.156Z,22.82
2023-09-03T17:00:59.665Z,23.05
2023-09-03T17:05:56.231Z,23.05
2023-09-03T17:10:52.692Z,22.58
2023-09-03T17:15:49.157Z,22.08
2023-09-03T17:20:45.617Z,21.91
2023-09-03T17:25:42.135Z,22.26
2023-09-03T17:30:38.689Z,22.57
2023-09-03T17:35:36.569Z,22.21
2023-09-03T17:40:33.027Z,20.76
2023-09-03T17:45:29.386Z,19.75
2023-09-03T17:50:25.801Z,19.30
2023-09-03T17:55:22.314Z,19.01
2023-09-03T18:00:18.837Z,18.45
2023-09-03T18:05:19.069Z,18.08
2023-09-03T18:10:15.513Z,17.79
2023-09-03T18:15:12.037Z,17.57
2023-09-03T18:20:08.821Z,17.30
2023-09-03T18:25:05.557Z,17.11
2023-09-03T18:30:04.706Z,16.77
2023-09-03T18:35:01.777Z,16.53
2023-09-03T18:39:58.186Z,16.25
2023-09-03T18:44:54.618Z,16.24
2023-09-03T18:49:51.003Z,16.19
2023-09-03T18:54:47.412Z,16.16
2023-09-03T18:59:44.882Z,16.14
2023-09-03T19:04:41.444Z,16.04
2023-09-03T19:09:39.794Z,15.94
2023-09-03T19:14:36.405Z,15.76
2023-09-03T19:19:32.862Z,15.69
2023-09-03T19:24:29.267Z,15.52
2023-09-03T19:29:26.290Z,15.45
2023-09-03T19:34:25.410Z,15.30
2023-09-03T19:39:22.896Z,15.28
2023-09-03T19:44:21.521Z,15.22
2023-09-03T19:49:18.040Z,15.12
2023-09-03T19:54:14.707Z,15.12
2023-09-03T19:59:11.109Z,15.04
2023-09-03T20:04:07.547Z,14.93
2023-09-03T20:09:06.598Z,14.77
2023-09-03T20:14:03.492Z,14.62
2023-09-03T20:18:59.990Z,14.52
2023-09-03T20:23:56.374Z,14.47
2023-09-03T20:28:53.197Z,14.37
2023-09-03T20:33:50.781Z,14.23
2023-09-03T20:38:47.517Z,14.08
2023-09-03T20:43:43.936Z,13.97
2023-09-03T20:48:40.477Z,13.91
2023-09-03T20:53:36.888Z,13.91
2023-09-03T20:58:33.860Z,13.88
2023-09-03T21:03:33.099Z,13.77
2023-09-03T21:08:30.819Z,13.74
2023-09-03T21:13:28.602Z,13.77
2023-09-03T21:18:27.423Z,13.58
2023-09-03T21:23:24.583Z,13.42
2023-09-03T21:28:21.555Z,13.39
2023-09-03T21:33:18.326Z,13.34
2023-09-03T21:38:14.798Z,13.31
2023-09-03T21:43:11.290Z,13.24
2023-09-03T21:48:08.564Z,13.19
2023-09-03T21:53:05.389Z,13.11
2023-09-03T21:58:01.782Z,13.06
2023-09-03T22:02:58.331Z,13.00
2023-09-03T22:07:55.093Z,12.93
2023-09-03T22:12:52.793Z,12.86
2023-09-03T22:17:49.301Z,12.78
2023-09-03T22:22:45.693Z,12.71
2023-09-03T22:27:42.148Z,12.66
2023-09-03T22:32:38.599Z,12.57
2023-09-03T22:37:35.037Z,12.50
2023-09-03T22:42:31.486Z,12.43
2023-09-03T22:47:29.637Z,12.31
2023-09-03T22:52:26.033Z,12.29
2023-09-03T22:57:23.976Z,12.26
2023-09-03T23:02:20.434Z,12.20
2023-09-03T23:07:16.887Z,12.11
2023-09-03T23:12:13.603Z,12.05
2023-09-03T23:17:12.062Z,12.09
2023-09-03T23:22:08.626Z,12.08
2023-09-03T23:27:05.393Z,11.98
2023-09-03T23:32:01.748Z,11.88
2023-09-03T23:36:58.184Z,11.78
2023-09-03T23:41:56.686Z,11.74
2023-09-03T23:47:06.747Z,11.66
2023-09-03T23:52:09.483Z,11.61
2023-09-03T23:57:05.945Z,11.66
